VYYY

Yangon International Airport

Airport
ICAO code
VYYY
IATA Code
RGN
Summary
ICAO Region
APAC
ICAO Territory
Location

Mingaladon, Yangon Region

Serving
Yangon
Elevation
109 ft
Coordinates
16° 54' 35" N , 96° 8' 6" E
KCC
Metar
VYYY 202130Z 31002KT 7000 NSC 21/20 Q1010 NOSIG

Yangon International Airport, located in Mingaladon, 15 km north of downtown Yangon, Myanmar.

Climatology

Tropical Monsoon climate (Köppen climate classification Am)

SKYbrary Partners:

Safety knowledge contributed by: